sensor_id;sensor_type;location;lat;lon;timestamp;temperature;humidity
29813;DHT22;16707;48.106;11.548;2024-03-08T00:00:27;0.10;99.90
29813;DHT22;16707;48.106;11.548;2024-03-08T00:02:55;0.10;99.90
29813;DHT22;16707;48.106;11.548;2024-03-08T00:05:22;0.10;99.90
29813;DHT22;16707;48.106;11.548;2024-03-08T00:07:49;0.00;99.90
29813;DHT22;16707;48.106;11.548;2024-03-08T00:10:15;0.00;99.90
29813;DHT22;16707;48.106;11.548;2024-03-08T00:12:44;-0.10;99.90
29813;DHT22;16707;48.106;11.548;2024-03-08T00:15:12;-0.10;99.90
29813;DHT22;16707;48.106;11.548;2024-03-08T00:17:39;-0.20;99.90
29813;DHT22;16707;48.106;11.548;2024-03-08T00:20:08;-0.10;99.90
29813;DHT22;16707;48.106;11.548;2024-03-08T00:22:35;-0.10;99.90
29813;DHT22;16707;48.106;11.548;2024-03-08T00:25:02;-0.20;99.90
29813;DHT22;16707;48.106;11.548;2024-03-08T00:27:29;-0.20;99.90
29813;DHT22;16707;48.106;11.548;2024-03-08T00:29:56;-0.20;99.90
29813;DHT22;16707;48.106;11.548;2024-03-08T00:32:23;0.00;99.90
29813;DHT22;16707;48.106;11.548;2024-03-08T00:34:50;-0.10;99.90
29813;DHT22;16707;48.106;11.548;2024-03-08T00:37:19;-0.10;99.90
29813;DHT22;16707;48.106;11.548;2024-03-08T00:39:47;-0.10;99.90
29813;DHT22;16707;48.106;11.548;2024-03-08T00:42:14;-0.20;99.90
29813;DHT22;16707;48.106;11.548;2024-03-08T00:44:41;-0.30;99.90
29813;DHT22;16707;48.106;11.548;2024-03-08T00:47:08;-0.20;99.90
29813;DHT22;16707;48.106;11.548;2024-03-08T00:49:35;-0.20;99.90
29813;DHT22;16707;48.106;11.548;2024-03-08T00:52:03;-0.30;99.90
29813;DHT22;16707;48.106;11.548;2024-03-08T00:54:33;-0.30;99.90
29813;DHT22;16707;48.106;11.548;2024-03-08T00:57:01;-0.30;99.90
29813;DHT22;16707;48.106;11.548;2024-03-08T00:59:28;-0.30;99.90
29813;DHT22;16707;48.106;11.548;2024-03-08T01:01:58;-0.20;99.90
29813;DHT22;16707;48.106;11.548;2024-03-08T01:04:25;-0.30;99.90
29813;DHT22;16707;48.106;11.548;2024-03-08T01:06:54;-0.40;99.90
29813;DHT22;16707;48.106;11.548;2024-03-08T01:09:21;-0.60;99.90
29813;DHT22;16707;48.106;11.548;2024-03-08T01:11:50;-0.60;99.90
29813;DHT22;16707;48.106;11.548;2024-03-08T01:14:18;-0.60;99.90
29813;DHT22;16707;48.106;11.548;2024-03-08T01:16:45;-0.50;99.90
29813;DHT22;16707;48.106;11.548;2024-03-08T01:19:12;-0.50;99.90
29813;DHT22;16707;48.106;11.548;2024-03-08T01:21:39;-0.40;99.90
29813;DHT22;16707;48.106;11.548;2024-03-08T01:24:05;-0.40;99.90
29813;DHT22;16707;48.106;11.548;2024-03-08T01:26:32;-0.20;99.90
29813;DHT22;16707;48.106;11.548;2024-03-08T01:29:01;-0.20;99.90
29813;DHT22;16707;48.106;11.548;2024-03-08T01:31:28;-0.20;99.90
29813;DHT22;16707;48.106;11.548;2024-03-08T01:33:55;-0.10;99.90
29813;DHT22;16707;48.106;11.548;2024-03-08T01:36:22;-0.10;99.90
29813;DHT22;16707;48.106;11.548;2024-03-08T01:38:50;-0.10;99.90
29813;DHT22;16707;48.106;11.548;2024-03-08T01:41:17;-0.10;99.90
29813;DHT22;16707;48.106;11.548;2024-03-08T01:43:45;-0.10;99.90
29813;DHT22;16707;48.106;11.548;2024-03-08T01:46:13;-0.20;99.90
29813;DHT22;16707;48.106;11.548;2024-03-08T01:48:42;-0.30;99.90
29813;DHT22;16707;48.106;11.548;2024-03-08T01:51:09;-0.30;99.90
29813;DHT22;16707;48.106;11.548;2024-03-08T01:53:37;-0.30;99.90
29813;DHT22;16707;48.106;11.548;2024-03-08T01:56:04;-0.30;99.90
29813;DHT22;16707;48.106;11.548;2024-03-08T01:58:32;-0.50;99.90
29813;DHT22;16707;48.106;11.548;2024-03-08T02:00:59;-0.40;99.90
29813;DHT22;16707;48.106;11.548;2024-03-08T02:03:28;-0.40;99.90
29813;DHT22;16707;48.106;11.548;2024-03-08T02:05:57;-0.20;99.90
29813;DHT22;16707;48.106;11.548;2024-03-08T02:08:24;-0.30;99.90
29813;DHT22;16707;48.106;11.548;2024-03-08T02:10:51;-0.30;99.90
29813;DHT22;16707;48.106;11.548;2024-03-08T02:13:18;-0.30;99.90
29813;DHT22;16707;48.106;11.548;2024-03-08T02:15:51;-0.20;99.90
29813;DHT22;16707;48.106;11.548;2024-03-08T02:18:18;-0.20;99.90
29813;DHT22;16707;48.106;11.548;2024-03-08T02:20:46;-0.20;99.90
29813;DHT22;16707;48.106;11.548;2024-03-08T02:23:14;-0.20;99.90
29813;DHT22;16707;48.106;11.548;2024-03-08T02:25:41;-0.30;99.90
29813;DHT22;16707;48.106;11.548;2024-03-08T02:28:09;-0.40;99.90
29813;DHT22;16707;48.106;11.548;2024-03-08T02:30:36;-0.40;99.90
29813;DHT22;16707;48.106;11.548;2024-03-08T02:33:03;-0.40;99.90
29813;DHT22;16707;48.106;11.548;2024-03-08T02:35:31;-0.40;99.90
29813;DHT22;16707;48.106;11.548;2024-03-08T02:37:59;-0.40;99.90
29813;DHT22;16707;48.106;11.548;2024-03-08T02:40:26;-0.40;99.90
29813;DHT22;16707;48.106;11.548;2024-03-08T02:42:52;-0.40;99.90
29813;DHT22;16707;48.106;11.548;2024-03-08T02:45:19;-0.30;99.90
29813;DHT22;16707;48.106;11.548;2024-03-08T02:47:46;-0.40;99.90
29813;DHT22;16707;48.106;11.548;2024-03-08T02:50:14;-0.50;99.90
29813;DHT22;16707;48.106;11.548;2024-03-08T02:52:42;-0.50;99.90
29813;DHT22;16707;48.106;11.548;2024-03-08T02:55:10;-0.60;99.90
29813;DHT22;16707;48.106;11.548;2024-03-08T02:57:40;-0.40;99.90
29813;DHT22;16707;48.106;11.548;2024-03-08T03:00:09;-0.40;99.90
29813;DHT22;16707;48.106;11.548;2024-03-08T03:02:36;-0.40;99.90
29813;DHT22;16707;48.106;11.548;2024-03-08T03:05:04;-0.40;99.90
29813;DHT22;16707;48.106;11.548;2024-03-08T03:07:31;-0.50;99.90
29813;DHT22;16707;48.106;11.548;2024-03-08T03:09:58;-0.50;99.90
29813;DHT22;16707;48.106;11.548;2024-03-08T03:12:27;-0.40;99.90
29813;DHT22;16707;48.106;11.548;2024-03-08T03:14:53;-0.70;99.90
29813;DHT22;16707;48.106;11.548;2024-03-08T03:17:21;-0.50;99.90
29813;DHT22;16707;48.106;11.548;2024-03-08T03:19:48;-0.50;99.90
29813;DHT22;16707;48.106;11.548;2024-03-08T03:22:15;-0.50;99.90
29813;DHT22;16707;48.106;11.548;2024-03-08T03:24:42;-0.50;99.90
29813;DHT22;16707;48.106;11.548;2024-03-08T03:27:09;-0.60;99.90
29813;DHT22;16707;48.106;11.548;2024-03-08T03:29:38;-0.70;99.90
29813;DHT22;16707;48.106;11.548;2024-03-08T03:32:05;-0.70;99.90
29813;DHT22;16707;48.106;11.548;2024-03-08T03:34:33;-0.70;99.90
29813;DHT22;16707;48.106;11.548;2024-03-08T03:37:01;-0.70;99.90
29813;DHT22;16707;48.106;11.548;2024-03-08T03:39:28;-0.80;99.90
29813;DHT22;16707;48.106;11.548;2024-03-08T03:41:57;-0.70;99.90
29813;DHT22;16707;48.106;11.548;2024-03-08T03:44:24;-0.60;99.90
29813;DHT22;16707;48.106;11.548;2024-03-08T03:46:52;-0.70;99.90
29813;DHT22;16707;48.106;11.548;2024-03-08T03:49:19;-0.70;99.90
29813;DHT22;16707;48.106;11.548;2024-03-08T03:51:45;-0.80;99.90
29813;DHT22;16707;48.106;11.548;2024-03-08T03:54:12;-0.80;99.90
29813;DHT22;16707;48.106;11.548;2024-03-08T03:56:39;-0.90;99.90
29813;DHT22;16707;48.106;11.548;2024-03-08T03:59:06;-0.80;99.90
29813;DHT22;16707;48.106;11.548;2024-03-08T04:01:33;-0.70;99.90
29813;DHT22;16707;48.106;11.548;2024-03-08T04:04:02;-0.70;99.90
29813;DHT22;16707;48.106;11.548;2024-03-08T04:06:30;-0.90;99.90
29813;DHT22;16707;48.106;11.548;2024-03-08T04:08:57;-0.90;99.90
29813;DHT22;16707;48.106;11.548;2024-03-08T04:11:24;-0.80;99.90
29813;DHT22;16707;48.106;11.548;2024-03-08T04:13:51;-0.80;99.90
29813;DHT22;16707;48.106;11.548;2024-03-08T04:16:19;-0.90;99.90
29813;DHT22;16707;48.106;11.548;2024-03-08T04:18:46;-0.90;99.90
29813;DHT22;16707;48.106;11.548;2024-03-08T04:21:14;-0.90;99.90
29813;DHT22;16707;48.106;11.548;2024-03-08T04:23:41;-0.90;99.90
29813;DHT22;16707;48.106;11.548;2024-03-08T04:26:10;-0.80;99.90
29813;DHT22;16707;48.106;11.548;2024-03-08T04:28:37;-0.80;99.90
29813;DHT22;16707;48.106;11.548;2024-03-08T04:31:05;-0.80;99.90
29813;DHT22;16707;48.106;11.548;2024-03-08T04:33:32;-0.80;99.90
29813;DHT22;16707;48.106;11.548;2024-03-08T04:36:01;-0.70;99.90
29813;DHT22;16707;48.106;11.548;2024-03-08T04:38:31;-0.60;99.90
29813;DHT22;16707;48.106;11.548;2024-03-08T04:40:57;-0.80;99.90
29813;DHT22;16707;48.106;11.548;2024-03-08T04:43:24;-0.60;99.90
29813;DHT22;16707;48.106;11.548;2024-03-08T04:45:52;-0.70;99.90
29813;DHT22;16707;48.106;11.548;2024-03-08T04:48:19;-0.70;99.90
29813;DHT22;16707;48.106;11.548;2024-03-08T04:50:46;-0.60;99.90
29813;DHT22;16707;48.106;11.548;2024-03-08T04:53:12;-0.60;99.90
29813;DHT22;16707;48.106;11.548;2024-03-08T04:55:41;-0.50;99.90
29813;DHT22;16707;48.106;11.548;2024-03-08T04:58:07;-0.50;99.90
29813;DHT22;16707;48.106;11.548;2024-03-08T05:00:34;-0.50;99.90
29813;DHT22;16707;48.106;11.548;2024-03-08T05:03:01;-0.50;99.90
29813;DHT22;16707;48.106;11.548;2024-03-08T05:05:29;-0.50;99.90
29813;DHT22;16707;48.106;11.548;2024-03-08T05:07:56;-0.40;99.90
29813;DHT22;16707;48.106;11.548;2024-03-08T05:10:23;-0.40;99.90
29813;DHT22;16707;48.106;11.548;2024-03-08T05:12:51;-0.30;99.90
29813;DHT22;16707;48.106;11.548;2024-03-08T05:15:18;-0.30;99.90
29813;DHT22;16707;48.106;11.548;2024-03-08T05:17:46;-0.30;99.90
29813;DHT22;16707;48.106;11.548;2024-03-08T05:20:12;-0.20;99.90
29813;DHT22;16707;48.106;11.548;2024-03-08T05:22:39;-0.20;99.90
29813;DHT22;16707;48.106;11.548;2024-03-08T05:25:06;-0.10;99.90
29813;DHT22;16707;48.106;11.548;2024-03-08T05:27:34;-0.10;99.90
29813;DHT22;16707;48.106;11.548;2024-03-08T05:30:03;-0.20;99.90
29813;DHT22;16707;48.106;11.548;2024-03-08T05:32:30;-0.20;99.90
29813;DHT22;16707;48.106;11.548;2024-03-08T05:34:57;-0.20;99.90
29813;DHT22;16707;48.106;11.548;2024-03-08T05:37:24;-0.10;99.90
29813;DHT22;16707;48.106;11.548;2024-03-08T05:39:51;-0.10;99.90
29813;DHT22;16707;48.106;11.548;2024-03-08T05:42:19;0.00;99.90
29813;DHT22;16707;48.106;11.548;2024-03-08T05:44:46;0.10;99.90
29813;DHT22;16707;48.106;11.548;2024-03-08T05:47:14;0.10;99.90
29813;DHT22;16707;48.106;11.548;2024-03-08T05:49:41;0.10;99.90
29813;DHT22;16707;48.106;11.548;2024-03-08T05:52:09;0.10;99.90
29813;DHT22;16707;48.106;11.548;2024-03-08T05:54:36;0.10;99.90
29813;DHT22;16707;48.106;11.548;2024-03-08T05:57:03;0.10;99.90
29813;DHT22;16707;48.106;11.548;2024-03-08T05:59:31;0.20;99.90
29813;DHT22;16707;48.106;11.548;2024-03-08T06:01:58;0.20;99.90
29813;DHT22;16707;48.106;11.548;2024-03-08T06:04:26;0.30;99.90
29813;DHT22;16707;48.106;11.548;2024-03-08T06:06:54;0.40;99.90
29813;DHT22;16707;48.106;11.548;2024-03-08T06:09:22;0.50;99.90
29813;DHT22;16707;48.106;11.548;2024-03-08T06:11:50;0.50;99.90
29813;DHT22;16707;48.106;11.548;2024-03-08T06:14:16;0.60;99.90
29813;DHT22;16707;48.106;11.548;2024-03-08T06:16:44;0.60;99.90
29813;DHT22;16707;48.106;11.548;2024-03-08T06:19:12;0.60;99.90
29813;DHT22;16707;48.106;11.548;2024-03-08T06:21:40;0.80;99.90
29813;DHT22;16707;48.106;11.548;2024-03-08T06:24:07;1.10;99.90
29813;DHT22;16707;48.106;11.548;2024-03-08T06:26:34;1.30;99.90
29813;DHT22;16707;48.106;11.548;2024-03-08T06:29:03;1.20;99.90
29813;DHT22;16707;48.106;11.548;2024-03-08T06:31:32;1.20;99.90
29813;DHT22;16707;48.106;11.548;2024-03-08T06:33:58;1.30;99.90
29813;DHT22;16707;48.106;11.548;2024-03-08T06:36:25;1.40;99.90
29813;DHT22;16707;48.106;11.548;2024-03-08T06:38:54;1.40;99.90
29813;DHT22;16707;48.106;11.548;2024-03-08T06:41:22;1.40;99.90
29813;DHT22;16707;48.106;11.548;2024-03-08T06:43:49;1.30;99.90
29813;DHT22;16707;48.106;11.548;2024-03-08T06:46:17;1.30;99.90
29813;DHT22;16707;48.106;11.548;2024-03-08T06:48:45;1.40;99.90
29813;DHT22;16707;48.106;11.548;2024-03-08T06:51:12;1.50;99.90
29813;DHT22;16707;48.106;11.548;2024-03-08T06:53:39;1.60;99.90
29813;DHT22;16707;48.106;11.548;2024-03-08T06:56:08;1.60;99.90
29813;DHT22;16707;48.106;11.548;2024-03-08T06:58:34;1.50;99.90
29813;DHT22;16707;48.106;11.548;2024-03-08T07:01:01;1.50;99.90
29813;DHT22;16707;48.106;11.548;2024-03-08T07:03:29;1.60;99.90
29813;DHT22;16707;48.106;11.548;2024-03-08T07:05:57;1.60;99.90
29813;DHT22;16707;48.106;11.548;2024-03-08T07:08:24;1.60;99.90
29813;DHT22;16707;48.106;11.548;2024-03-08T07:10:52;1.90;99.90
29813;DHT22;16707;48.106;11.548;2024-03-08T07:13:20;2.10;99.90
29813;DHT22;16707;48.106;11.548;2024-03-08T07:15:47;2.20;99.90
29813;DHT22;16707;48.106;11.548;2024-03-08T07:18:14;2.10;99.90
29813;DHT22;16707;48.106;11.548;2024-03-08T07:20:41;2.20;99.90
29813;DHT22;16707;48.106;11.548;2024-03-08T07:23:08;2.00;99.90
29813;DHT22;16707;48.106;11.548;2024-03-08T07:25:36;1.90;99.90
29813;DHT22;16707;48.106;11.548;2024-03-08T07:28:04;2.00;99.90
29813;DHT22;16707;48.106;11.548;2024-03-08T07:30:33;2.20;99.90
29813;DHT22;16707;48.106;11.548;2024-03-08T07:33:17;2.50;99.90
29813;DHT22;16707;48.106;11.548;2024-03-08T07:35:44;2.60;99.90
29813;DHT22;16707;48.106;11.548;2024-03-08T07:38:12;2.40;99.90
29813;DHT22;16707;48.106;11.548;2024-03-08T07:40:40;2.30;99.90
29813;DHT22;16707;48.106;11.548;2024-03-08T07:43:10;2.60;99.90
29813;DHT22;16707;48.106;11.548;2024-03-08T07:45:38;2.50;99.90
29813;DHT22;16707;48.106;11.548;2024-03-08T07:48:06;2.40;99.90
29813;DHT22;16707;48.106;11.548;2024-03-08T07:50:35;2.60;99.90
29813;DHT22;16707;48.106;11.548;2024-03-08T07:53:02;2.90;99.90
29813;DHT22;16707;48.106;11.548;2024-03-08T07:55:31;2.80;99.90
29813;DHT22;16707;48.106;11.548;2024-03-08T07:57:58;2.80;99.90
29813;DHT22;16707;48.106;11.548;2024-03-08T08:00:25;2.60;99.90
29813;DHT22;16707;48.106;11.548;2024-03-08T08:02:54;2.90;99.90
29813;DHT22;16707;48.106;11.548;2024-03-08T08:05:21;3.20;99.90
29813;DHT22;16707;48.106;11.548;2024-03-08T08:07:48;3.70;99.90
29813;DHT22;16707;48.106;11.548;2024-03-08T08:10:15;3.90;99.90
29813;DHT22;16707;48.106;11.548;2024-03-08T08:12:44;3.60;99.90
29813;DHT22;16707;48.106;11.548;2024-03-08T08:15:11;3.80;99.90
29813;DHT22;16707;48.106;11.548;2024-03-08T08:17:38;4.30;99.90
29813;DHT22;16707;48.106;11.548;2024-03-08T08:20:07;3.90;99.90
29813;DHT22;16707;48.106;11.548;2024-03-08T08:22:34;4.10;99.90
29813;DHT22;16707;48.106;11.548;2024-03-08T08:25:00;4.30;99.90
29813;DHT22;16707;48.106;11.548;2024-03-08T08:27:28;4.80;99.90
29813;DHT22;16707;48.106;11.548;2024-03-08T08:29:55;5.00;99.90
29813;DHT22;16707;48.106;11.548;2024-03-08T08:32:22;5.00;99.90
29813;DHT22;16707;48.106;11.548;2024-03-08T08:34:49;5.00;99.90
29813;DHT22;16707;48.106;11.548;2024-03-08T08:37:17;4.40;99.90
29813;DHT22;16707;48.106;11.548;2024-03-08T08:39:44;4.50;99.90
29813;DHT22;16707;48.106;11.548;2024-03-08T08:42:11;4.60;99.90
29813;DHT22;16707;48.106;11.548;2024-03-08T08:44:38;4.30;99.90
29813;DHT22;16707;48.106;11.548;2024-03-08T08:47:06;4.10;99.90
29813;DHT22;16707;48.106;11.548;2024-03-08T08:49:33;4.50;99.90
29813;DHT22;16707;48.106;11.548;2024-03-08T08:52:00;4.50;99.90
29813;DHT22;16707;48.106;11.548;2024-03-08T08:54:29;4.30;99.90
29813;DHT22;16707;48.106;11.548;2024-03-08T08:56:56;4.10;99.90
29813;DHT22;16707;48.106;11.548;2024-03-08T08:59:23;4.60;99.90
29813;DHT22;16707;48.106;11.548;2024-03-08T09:01:50;4.50;99.90
29813;DHT22;16707;48.106;11.548;2024-03-08T09:04:19;4.20;99.90
29813;DHT22;16707;48.106;11.548;2024-03-08T09:06:47;4.10;99.90
29813;DHT22;16707;48.106;11.548;2024-03-08T09:09:13;3.70;99.90
29813;DHT22;16707;48.106;11.548;2024-03-08T09:11:43;3.50;99.90
29813;DHT22;16707;48.106;11.548;2024-03-08T09:14:11;3.60;99.90
29813;DHT22;16707;48.106;11.548;2024-03-08T09:16:38;3.80;99.90
29813;DHT22;16707;48.106;11.548;2024-03-08T09:19:05;3.90;99.90
29813;DHT22;16707;48.106;11.548;2024-03-08T09:21:32;4.20;99.90
29813;DHT22;16707;48.106;11.548;2024-03-08T09:24:00;4.60;99.90
29813;DHT22;16707;48.106;11.548;2024-03-08T09:26:27;4.80;99.90
29813;DHT22;16707;48.106;11.548;2024-03-08T09:28:55;4.90;99.90
29813;DHT22;16707;48.106;11.548;2024-03-08T09:31:22;4.80;99.90
29813;DHT22;16707;48.106;11.548;2024-03-08T09:33:48;4.80;99.90
29813;DHT22;16707;48.106;11.548;2024-03-08T09:36:16;5.00;99.90
29813;DHT22;16707;48.106;11.548;2024-03-08T09:38:43;5.00;99.90
29813;DHT22;16707;48.106;11.548;2024-03-08T09:41:09;5.30;99.90
29813;DHT22;16707;48.106;11.548;2024-03-08T09:43:38;5.60;99.90
29813;DHT22;16707;48.106;11.548;2024-03-08T09:46:06;5.70;99.90
29813;DHT22;16707;48.106;11.548;2024-03-08T09:48:34;5.40;99.90
29813;DHT22;16707;48.106;11.548;2024-03-08T09:51:01;5.50;99.90
29813;DHT22;16707;48.106;11.548;2024-03-08T09:53:28;5.60;99.90
29813;DHT22;16707;48.106;11.548;2024-03-08T09:55:55;5.60;99.90
29813;DHT22;16707;48.106;11.548;2024-03-08T09:58:22;5.80;99.90
29813;DHT22;16707;48.106;11.548;2024-03-08T10:01:18;6.00;99.90
29813;DHT22;16707;48.106;11.548;2024-03-08T10:03:46;5.70;99.90
29813;DHT22;16707;48.106;11.548;2024-03-08T10:06:13;5.70;99.90
29813;DHT22;16707;48.106;11.548;2024-03-08T10:08:40;5.70;99.90
29813;DHT22;16707;48.106;11.548;2024-03-08T10:11:08;5.80;99.90
29813;DHT22;16707;48.106;11.548;2024-03-08T10:13:37;5.90;99.90
29813;DHT22;16707;48.106;11.548;2024-03-08T10:16:05;6.10;99.90
29813;DHT22;16707;48.106;11.548;2024-03-08T10:18:34;6.20;99.90
29813;DHT22;16707;48.106;11.548;2024-03-08T10:21:04;6.50;99.90
29813;DHT22;16707;48.106;11.548;2024-03-08T10:23:32;6.60;99.90
29813;DHT22;16707;48.106;11.548;2024-03-08T10:26:09;6.50;99.90
29813;DHT22;16707;48.106;11.548;2024-03-08T10:28:36;6.70;99.90
29813;DHT22;16707;48.106;11.548;2024-03-08T10:31:03;7.00;99.90
29813;DHT22;16707;48.106;11.548;2024-03-08T10:33:31;7.00;99.90
29813;DHT22;16707;48.106;11.548;2024-03-08T10:36:00;7.20;99.90
29813;DHT22;16707;48.106;11.548;2024-03-08T10:38:29;7.30;99.90
29813;DHT22;16707;48.106;11.548;2024-03-08T10:40:58;7.30;99.90
29813;DHT22;16707;48.106;11.548;2024-03-08T10:43:25;7.30;99.90
29813;DHT22;16707;48.106;11.548;2024-03-08T10:45:59;6.90;99.90
29813;DHT22;16707;48.106;11.548;2024-03-08T10:48:29;7.20;99.90
29813;DHT22;16707;48.106;11.548;2024-03-08T10:50:58;7.40;99.90
29813;DHT22;16707;48.106;11.548;2024-03-08T10:53:27;7.30;99.90
29813;DHT22;16707;48.106;11.548;2024-03-08T10:55:55;7.40;99.90
29813;DHT22;16707;48.106;11.548;2024-03-08T10:58:22;7.80;99.90
29813;DHT22;16707;48.106;11.548;2024-03-08T11:00:52;7.80;99.90
29813;DHT22;16707;48.106;11.548;2024-03-08T11:06:05;7.90;99.90
29813;DHT22;16707;48.106;11.548;2024-03-08T11:08:35;7.80;99.90
29813;DHT22;16707;48.106;11.548;2024-03-08T11:11:02;7.80;99.90
29813;DHT22;16707;48.106;11.548;2024-03-08T11:13:33;7.80;99.50
29813;DHT22;16707;48.106;11.548;2024-03-08T11:16:00;7.90;99.60
29813;DHT22;16707;48.106;11.548;2024-03-08T11:18:27;8.10;98.80
29813;DHT22;16707;48.106;11.548;2024-03-08T11:20:54;8.10;98.90
29813;DHT22;16707;48.106;11.548;2024-03-08T11:23:23;8.10;98.20
29813;DHT22;16707;48.106;11.548;2024-03-08T11:25:52;8.20;98.20
29813;DHT22;16707;48.106;11.548;2024-03-08T11:28:20;8.30;96.60
29813;DHT22;16707;48.106;11.548;2024-03-08T11:30:47;8.40;96.90
29813;DHT22;16707;48.106;11.548;2024-03-08T11:33:35;8.40;96.90
29813;DHT22;16707;48.106;11.548;2024-03-08T11:36:02;8.50;96.90
29813;DHT22;16707;48.106;11.548;2024-03-08T11:38:31;8.70;96.90
29813;DHT22;16707;48.106;11.548;2024-03-08T11:41:00;8.50;95.90
29813;DHT22;16707;48.106;11.548;2024-03-08T11:43:27;8.50;96.00
29813;DHT22;16707;48.106;11.548;2024-03-08T11:46:06;8.40;96.80
29813;DHT22;16707;48.106;11.548;2024-03-08T11:48:34;8.50;96.30
29813;DHT22;16707;48.106;11.548;2024-03-08T11:51:01;8.70;95.90
29813;DHT22;16707;48.106;11.548;2024-03-08T11:53:28;8.80;94.90
29813;DHT22;16707;48.106;11.548;2024-03-08T11:55:55;9.00;94.20
29813;DHT22;16707;48.106;11.548;2024-03-08T11:58:32;9.10;94.70
29813;DHT22;16707;48.106;11.548;2024-03-08T12:01:02;9.20;94.30
29813;DHT22;16707;48.106;11.548;2024-03-08T12:03:30;9.10;94.70
29813;DHT22;16707;48.106;11.548;2024-03-08T12:05:59;9.40;94.30
29813;DHT22;16707;48.106;11.548;2024-03-08T12:08:26;9.60;93.90
29813;DHT22;16707;48.106;11.548;2024-03-08T12:10:55;9.90;93.20
29813;DHT22;16707;48.106;11.548;2024-03-08T12:13:25;9.80;91.80
29813;DHT22;16707;48.106;11.548;2024-03-08T12:15:56;9.50;93.10
29813;DHT22;16707;48.106;11.548;2024-03-08T12:18:25;9.30;93.20
29813;DHT22;16707;48.106;11.548;2024-03-08T12:21:03;9.20;93.20
29813;DHT22;16707;48.106;11.548;2024-03-08T12:23:32;9.30;93.70
29813;DHT22;16707;48.106;11.548;2024-03-08T12:26:08;9.00;94.00
29813;DHT22;16707;48.106;11.548;2024-03-08T12:28:38;9.00;94.20
29813;DHT22;16707;48.106;11.548;2024-03-08T12:31:07;9.20;94.00
29813;DHT22;16707;48.106;11.548;2024-03-08T12:33:36;9.30;93.20
29813;DHT22;16707;48.106;11.548;2024-03-08T12:36:03;9.40;92.10
29813;DHT22;16707;48.106;11.548;2024-03-08T12:38:32;9.60;92.50
29813;DHT22;16707;48.106;11.548;2024-03-08T12:41:01;9.80;92.60
29813;DHT22;16707;48.106;11.548;2024-03-08T12:43:28;10.00;92.50
29813;DHT22;16707;48.106;11.548;2024-03-08T12:45:57;9.90;91.70
29813;DHT22;16707;48.106;11.548;2024-03-08T12:48:25;9.50;92.70
29813;DHT22;16707;48.106;11.548;2024-03-08T12:50:52;9.60;92.20
29813;DHT22;16707;48.106;11.548;2024-03-08T12:53:20;9.50;91.90
29813;DHT22;16707;48.106;11.548;2024-03-08T12:55:48;9.70;92.20
29813;DHT22;16707;48.106;11.548;2024-03-08T12:58:15;9.50;92.10
29813;DHT22;16707;48.106;11.548;2024-03-08T13:00:42;9.60;92.10
29813;DHT22;16707;48.106;11.548;2024-03-08T13:03:09;9.50;92.10
29813;DHT22;16707;48.106;11.548;2024-03-08T13:05:37;9.20;91.90
29813;DHT22;16707;48.106;11.548;2024-03-08T13:08:05;9.40;92.40
29813;DHT22;16707;48.106;11.548;2024-03-08T13:10:37;9.80;92.00
29813;DHT22;16707;48.106;11.548;2024-03-08T13:13:04;9.90;91.00
29813;DHT22;16707;48.106;11.548;2024-03-08T13:15:31;10.00;90.10
29813;DHT22;16707;48.106;11.548;2024-03-08T13:17:59;9.90;90.00
29813;DHT22;16707;48.106;11.548;2024-03-08T13:20:26;9.70;90.50
29813;DHT22;16707;48.106;11.548;2024-03-08T13:22:55;9.60;91.10
29813;DHT22;16707;48.106;11.548;2024-03-08T13:25:22;9.90;90.40
29813;DHT22;16707;48.106;11.548;2024-03-08T13:27:49;9.80;90.30
29813;DHT22;16707;48.106;11.548;2024-03-08T13:30:16;9.80;90.00
29813;DHT22;16707;48.106;11.548;2024-03-08T13:32:44;9.80;90.60
29813;DHT22;16707;48.106;11.548;2024-03-08T13:35:10;10.10;90.00
29813;DHT22;16707;48.106;11.548;2024-03-08T13:37:39;10.10;88.10
29813;DHT22;16707;48.106;11.548;2024-03-08T13:40:08;9.80;88.20
29813;DHT22;16707;48.106;11.548;2024-03-08T13:42:39;9.90;89.20
29813;DHT22;16707;48.106;11.548;2024-03-08T13:45:06;9.90;88.20
29813;DHT22;16707;48.106;11.548;2024-03-08T13:47:34;9.90;88.60
29813;DHT22;16707;48.106;11.548;2024-03-08T13:50:01;10.00;87.50
29813;DHT22;16707;48.106;11.548;2024-03-08T13:52:28;10.10;86.60
29813;DHT22;16707;48.106;11.548;2024-03-08T13:54:55;10.10;86.00
29813;DHT22;16707;48.106;11.548;2024-03-08T13:57:24;10.20;86.50
29813;DHT22;16707;48.106;11.548;2024-03-08T13:59:52;10.20;88.00
29813;DHT22;16707;48.106;11.548;2024-03-08T14:02:20;10.20;87.50
29813;DHT22;16707;48.106;11.548;2024-03-08T14:04:48;10.10;87.50
29813;DHT22;16707;48.106;11.548;2024-03-08T14:07:15;10.30;87.60
29813;DHT22;16707;48.106;11.548;2024-03-08T14:09:42;10.30;86.80
29813;DHT22;16707;48.106;11.548;2024-03-08T14:12:09;10.20;87.40
29813;DHT22;16707;48.106;11.548;2024-03-08T14:14:37;10.00;88.30
29813;DHT22;16707;48.106;11.548;2024-03-08T14:17:04;10.20;88.50
29813;DHT22;16707;48.106;11.548;2024-03-08T14:19:32;10.30;87.80
29813;DHT22;16707;48.106;11.548;2024-03-08T14:22:00;10.00;87.40
29813;DHT22;16707;48.106;11.548;2024-03-08T14:24:29;9.90;88.60
29813;DHT22;16707;48.106;11.548;2024-03-08T14:26:56;10.00;88.40
29813;DHT22;16707;48.106;11.548;2024-03-08T14:29:24;10.10;88.40
29813;DHT22;16707;48.106;11.548;2024-03-08T14:31:55;10.20;88.50
29813;DHT22;16707;48.106;11.548;2024-03-08T14:34:24;10.20;88.10
29813;DHT22;16707;48.106;11.548;2024-03-08T14:36:52;10.40;87.70
29813;DHT22;16707;48.106;11.548;2024-03-08T14:39:19;10.30;87.20
29813;DHT22;16707;48.106;11.548;2024-03-08T14:41:47;10.20;87.30
29813;DHT22;16707;48.106;11.548;2024-03-08T14:44:17;10.20;88.20
29813;DHT22;16707;48.106;11.548;2024-03-08T14:46:44;10.00;88.00
29813;DHT22;16707;48.106;11.548;2024-03-08T14:49:13;9.80;89.50
29813;DHT22;16707;48.106;11.548;2024-03-08T14:51:40;9.70;89.20
29813;DHT22;16707;48.106;11.548;2024-03-08T14:54:10;9.70;88.90
29813;DHT22;16707;48.106;11.548;2024-03-08T14:56:43;9.60;89.00
29813;DHT22;16707;48.106;11.548;2024-03-08T14:59:23;9.70;89.50
29813;DHT22;16707;48.106;11.548;2024-03-08T15:01:52;9.70;90.10
29813;DHT22;16707;48.106;11.548;2024-03-08T15:04:24;9.80;90.40
29813;DHT22;16707;48.106;11.548;2024-03-08T15:06:51;9.80;90.00
29813;DHT22;16707;48.106;11.548;2024-03-08T15:09:18;9.80;89.90
29813;DHT22;16707;48.106;11.548;2024-03-08T15:11:45;9.70;88.80
29813;DHT22;16707;48.106;11.548;2024-03-08T15:14:14;9.70;89.10
29813;DHT22;16707;48.106;11.548;2024-03-08T15:16:44;9.60;90.00
29813;DHT22;16707;48.106;11.548;2024-03-08T15:19:13;9.70;90.00
29813;DHT22;16707;48.106;11.548;2024-03-08T15:21:42;9.70;89.40
29813;DHT22;16707;48.106;11.548;2024-03-08T15:24:11;9.60;89.50
29813;DHT22;16707;48.106;11.548;2024-03-08T15:26:40;9.50;89.50
29813;DHT22;16707;48.106;11.548;2024-03-08T15:29:08;9.50;90.00
29813;DHT22;16707;48.106;11.548;2024-03-08T15:31:38;9.40;90.20